Vevay, IN (47043)

3:38 PM EST on February 10, 2016 (GMT -0500)
Riveraire | | Change Station
CLOSE
Current Station
Personal Weather Station
Location: Vevay, IN
Elevation: 480 ft
Nearby Weather Stations

Elev 480 ft 38.73 °N, 85.09 °W | Updated 1 second ago

Overcast
Overcast
20.0 °F
Feels Like 12 °F
N
6.0
Wind Variable Wind from WSW
Gusts 16.0 mph

Today
High -- | Low -- °F
--% Chance of Precip.
Yesterday
High -- | Low -- °F
Precip. -- in
Pressure 30.05 in
Visibility 2.5 miles
Clouds Scattered Clouds 2000 ft
Mostly Cloudy 2500 ft
Overcast 3600 ft
Windchill 12 °F
Dew Point 10 °F
Humidity 65%
Rainfall 0.00 in
Snow Depth Not available.
7:37 AM 6:11 PM
Waxing Crescent, 7% visible
METAR KCVG 101952Z 24008KT 2 1/2SM R18C/6000VP6000FT HZ SCT020 BKN025 OVC036 M08/M13 A3001 RMK AO2 SFC VIS 4 SNB1853E51 SLP176 P0000 T10831133
Pressure 30.05 in
Visibility 2.5 miles
Clouds Scattered Clouds 2000 ft
Mostly Cloudy 2500 ft
Overcast 3600 ft
Windchill 12 °F
Dew Point 10 °F
Humidity 65%
Rainfall 0.00 in
Snow Depth Not available.
7:37 AM 6:11 PM
Waxing Crescent, 7% visible
METAR KCVG 101952Z 24008KT 2 1/2SM R18C/6000VP6000FT HZ SCT020 BKN025 OVC036 M08/M13 A3001 RMK AO2 SFC VIS 4 SNB1853E51 SLP176 P0000 T10831133

10-Day Weather Forecast

Almanac

Astronomy

Feb. 10, 2016 Rise Set
Actual Time
Civil Twilight
Nautical Twilight
Astronomical Twilight
Moon
Length of Visible Light
Length of Day
Tomorrow will be .
, % of the Moon is Illuminated

Today's Extremes

State Highs State Lows

Community

WunderPhotos

Upload Photos

1,891,943 photos uploaded!

WunderBlog® & News

Nearby

Air Quality

  Air Quality AQ Index Pollutant
Not available.

Snow Depth

Station Depth Elevation

Earthquake Activity

City Distance Mag. Time & Date
Minimum magnitude displayed is 2.5.

Coastal Water Temperatures

Place Temperature

Stations

Nearby Weather Stations

Station Location Temp. Windchill Dew Point Humidity Wind Precip. Elev Updated Type
                   

Watches & Warnings

There are currently no watches in effect.